• Join FlightAware (Why Join?)
  • Login
  • US Flag 
01:14AM EDT


 

Airport Tracker/Info


-or-


 

Live Flight TrackerFlight Track Log ✈ N566UA ✈ 20-Apr-2013 ✈ KORD - KLAS

Flight Track Log - Related Links

Times and Time Zones

All times are in EDT time to prevent confusion due to time zone crossing. See the N566UA flight status page for this flight to view local times or setup timezone preferences in your user account.

Time Position Orientation Groundspeed Altitude Reporting Facility
EDT Latitude Longitude Course Direction KTS MPH feet Rate Location/Type
07:21PM 41.9333 -87.9167 228° Southwest 185 213 2,100  Level Chicago TRACON
07:21PM 41.9000 -87.9667 228° Southwest 228 262 4,300 2,580 Climbing Chicago TRACON
07:23PM 41.8303 -88.0583 224° Southwest 250 288 8,300 2,880 Climbing Chicago Center
07:24PM 41.8133 -88.1525 256° West 265 305 11,500 2,400 Climbing Chicago Center
07:25PM 41.8072 -88.2525 265° West 273 314 13,300 2,040 Climbing Chicago Center
07:26PM 41.8036 -88.3733 268° West 321 369 15,700 2,160 Climbing Chicago Center
07:27PM 41.8061 -88.4975 272° West 334 384 17,800 2,340 Climbing Chicago Center
07:28PM 41.8103 -88.6489 272° West 342 394 20,600 2,340 Climbing Chicago Center
07:29PM 41.8131 -88.7800 272° West 350 403 22,700 1,980 Climbing Chicago Center
07:30PM 41.8047 -88.9128 265° West 358 412 24,700 1,800 Climbing Chicago Center
07:31PM 41.7942 -89.0444 264° West 361 415 26,500 1,560 Climbing Chicago Center
07:32PM 41.7806 -89.1819 262° West 372 428 27,900 1,200 Climbing Chicago Center
07:33PM 41.7644 -89.3244 261° West 387 445 29,000 1,260 Climbing Chicago Center
07:34PM 41.7494 -89.4681 262° West 391 450 30,500 1,560 Climbing Chicago Center
07:35PM 41.7319 -89.6356 262° West 392 451 32,200 1,500 Climbing Chicago Center
07:36PM 41.7153 -89.7769 261° West 389 448 33,600 1,080 Climbing Chicago Center
07:37PM 41.6992 -89.9208 262° West 391 450 34,500 780 Climbing Chicago Center
07:38PM 41.6825 -90.0681 261° West 399 459 35,200 720 Climbing Chicago Center
07:39PM 41.6647 -90.2153 261° West 403 464 36,000 360 Climbing Chicago Center
07:40PM 41.6475 -90.3661 261° West 412 474 36,000  Level Chicago Center
07:41PM 41.6300 -90.5131 261° West 406 467 36,000  Level Chicago Center
07:42PM 41.6111 -90.6678 261° West 408 470 36,000  Level Chicago Center
07:43PM 41.5886 -90.8511 261° West 417 480 36,000  Level Chicago Center
07:44PM 41.5700 -91.0047 261° West 421 484 36,000  Level Chicago Center
07:45PM 41.5508 -91.1583 261° West 421 484 36,000  Level Chicago Center
07:47PM 41.5306 -91.3108 260° West 421 484 36,000  Level Chicago Center
07:48PM 41.5122 -91.4625 261° West 419 482 36,000  Level Chicago Center
07:49PM 41.4928 -91.6131 260° West 415 478 36,000  Level Chicago Center
07:50PM 41.4736 -91.7617 260° West 409 471 36,000  Level Chicago Center
07:51PM 41.4542 -91.9097 260° West 407 468 36,000  Level Chicago Center
07:52PM 41.4314 -92.0861 260° West 405 466 36,000  Level Chicago Center
07:53PM 41.4111 -92.2347 260° West 407 468 36,000  Level Chicago Center
07:54PM 41.3917 -92.3819 260° West 408 470 36,000  Level Chicago Center
07:55PM 41.3717 -92.5217 259° West 411 473 36,000  Level Chicago Center
07:55PM 41.3567 -92.6406 260° West 410 472 36,000  Level Minneapolis Center
07:56PM 41.3353 -92.7869 259° West 408 470 36,000  Level Minneapolis Center
07:57PM 41.3142 -92.9331 259° West 408 470 36,000  Level Minneapolis Center
07:58PM 41.2897 -93.1089 260° West 408 470 36,000  Level Minneapolis Center
08:00PM 41.2694 -93.2558 260° West 409 471 36,000  Level Minneapolis Center
08:01PM 41.2469 -93.4022 258° West 409 471 36,000  Level Minneapolis Center
08:02PM 41.2250 -93.5472 259° West 406 467 36,000  Level Minneapolis Center
08:03PM 41.2042 -93.6925 259° West 404 465 36,000  Level Minneapolis Center
08:04PM 41.1828 -93.8403 259° West 410 472 36,000  Level Minneapolis Center
08:05PM 41.1608 -93.9872 259° West 411 473 36,000  Level Minneapolis Center
08:06PM 41.1347 -94.1631 259° West 409 471 36,000  Level Minneapolis Center
08:07PM 41.1125 -94.3094 259° West 408 470 36,000  Level Minneapolis Center
08:08PM 41.0889 -94.4575 258° West 412 474 36,000  Level Minneapolis Center
08:09PM 41.0678 -94.5997 259° West 411 473 36,000  Level Minneapolis Center
08:10PM 41.0447 -94.7486 258° West 411 473 36,000  Level Minneapolis Center
08:11PM 41.0206 -94.8986 258° West 413 475 36,000  Level Minneapolis Center
08:12PM 40.9958 -95.0469 258° West 411 473 36,000  Level Minneapolis Center
08:13PM 40.9714 -95.1967 258° West 414 476 36,000  Level Minneapolis Center
08:14PM 40.9458 -95.3519 258° West 423 487 36,000  Level Minneapolis Center
08:15PM 40.9164 -95.5333 258° West 422 486 36,000  Level Minneapolis Center
08:16PM 40.8914 -95.6836 258° West 418 481 36,000  Level Minneapolis Center
08:17PM 40.8667 -95.8353 258° West 419 482 36,000  Level Minneapolis Center
08:18PM 40.8414 -95.9856 258° West 417 480 36,000  Level Minneapolis Center
08:19PM 40.8147 -96.1361 257° West 419 482 36,000  Level Minneapolis Center
08:20PM 40.7889 -96.2867 257° West 418 481 36,000  Level Minneapolis Center
08:21PM 40.7625 -96.4378 257° West 420 483 36,000  Level Minneapolis Center
08:22PM 40.7381 -96.5886 258° West 421 484 36,000  Level Minneapolis Center
08:23PM 40.7108 -96.7378 257° West 419 482 36,000  Level Minneapolis Center
08:24PM 40.6844 -96.8881 257° West 419 482 36,000  Level Minneapolis Center
08:25PM 40.6578 -97.0389 257° West 421 484 36,000  Level Minneapolis Center
08:26PM 40.6314 -97.1883 257° West 420 483 36,000  Level Minneapolis Center
08:27PM 40.5994 -97.3592 256° West 420 483 36,000  Level Minneapolis Center
08:28PM 40.5717 -97.5078 256° West 420 483 36,000  Level Minneapolis Center
08:29PM 40.5439 -97.6583 256° West 421 484 36,000  Level Minneapolis Center
08:30PM 40.5153 -97.8081 256° West 421 484 36,000  Level Minneapolis Center
08:31PM 40.4875 -97.9572 256° West 420 483 36,000  Level Minneapolis Center
08:32PM 40.4586 -98.1069 256° West 420 483 36,000  Level Minneapolis Center
08:33PM 40.4303 -98.2569 256° West 422 486 36,000  Level Minneapolis Center
08:34PM 40.4019 -98.4064 256° West 421 484 36,000  Level Minneapolis Center
08:35PM 40.3731 -98.5578 256° West 424 488 36,000  Level Minneapolis Center
08:36PM 40.3378 -98.7383 256° West 424 488 36,000  Level Minneapolis Center
08:37PM 40.3072 -98.8878 255° West 423 487 36,000  Level Minneapolis Center
08:38PM 40.2897 -98.9789 256° West 423 487 36,000  Level Denver Center
08:39PM 40.2600 -99.1281 255° West 422 486 36,000  Level Denver Center
08:40PM 40.2289 -99.2797 255° West 428 493 36,000  Level Denver Center
08:41PM 40.1994 -99.4289 256° West 424 488 36,000  Level Denver Center
08:42PM 40.1689 -99.5794 255° West 426 490 36,000  Level Denver Center
08:43PM 40.1381 -99.7294 255° West 427 491 36,000  Level Denver Center
08:44PM 40.1069 -99.8781 255° West 425 489 36,000  Level Denver Center
08:45PM 40.0728 -100.0422 255° West 427 491 36,000  Level Denver Center
08:46PM 40.0378 -100.2097 255° West 430 495 36,000  Level Denver Center
08:47PM 40.0067 -100.3544 254° West 429 494 36,000  Level Denver Center
08:48PM 39.9753 -100.4983 254° West 432 497 36,000  Level Denver Center
08:49PM 39.9392 -100.6667 254° West 431 496 36,000  Level Denver Center
08:50PM 39.9086 -100.8103 255° West 429 494 36,000  Level Denver Center
08:51PM 39.8719 -100.9775 254° West 429 494 36,000  Level Denver Center
08:52PM 39.8400 -101.1219 254° West 431 496 36,000  Level Denver Center
08:53PM 39.8081 -101.2653 254° West 431 496 36,000  Level Denver Center
08:54PM 39.7719 -101.4353 255° West 435 501 36,000  Level Denver Center
08:55PM 39.7392 -101.5769 253° West 429 494 36,000  Level Denver Center
08:56PM 39.7075 -101.7208 254° West 432 497 36,000  Level Denver Center
08:57PM 39.6689 -101.8881 253° West 431 496 36,000  Level Denver Center
08:58PM 39.6364 -102.0328 254° West 434 499 36,000  Level Denver Center
08:59PM 39.5983 -102.2006 254° West 434 499 36,000  Level Denver Center
09:00PM 39.5658 -102.3453 254° West 437 503 36,000  Level Denver Center
09:02PM 39.5281 -102.5042 253° West 437 503 36,000  Level Denver Center
09:03PM 39.4925 -102.6547 253° West 435 501 36,000  Level Denver Center
09:04PM 39.4581 -102.8053 254° West 434 499 36,000  Level Denver Center
09:06PM 39.3867 -103.1039 253° West 430 495 36,000  Level Denver Center
09:07PM 39.3500 -103.2531 252° West 431 496 36,000 120 Level Denver Center
09:08PM 39.3131 -103.4039 252° West 436 502 36,300 360 Climbing Denver Center
09:09PM 39.2764 -103.5517 252° West 429 494 36,800 480 Climbing Denver Center
09:10PM 39.2394 -103.7003 252° West 430 495 37,300 480 Climbing Denver Center
09:11PM 39.2036 -103.8478 253° West 428 493 37,800 300 Climbing Denver Center
09:12PM 39.1678 -103.9914 252° West 419 482 38,000 60 Climbing Denver Center
09:13PM 39.1322 -104.1358 252° West 419 482 38,000  Level Denver Center
09:14PM 39.0950 -104.2839 252° West 426 490 38,000  Level Denver Center
09:15PM 39.0517 -104.4539 252° West 423 487 38,000  Level Denver Center
09:16PM 39.0144 -104.5994 252° West 424 488 38,000  Level Denver Center
09:17PM 38.9758 -104.7458 251° West 426 490 38,000  Level Denver Center
09:18PM 38.9386 -104.8917 252° West 425 489 38,000  Level Denver Center
09:19PM 38.8997 -105.0414 252° West 433 498 38,000  Level Denver Center
09:20PM 38.8614 -105.1903 252° West 435 501 38,000  Level Denver Center
09:21PM 38.8231 -105.3347 251° West 427 491 38,000  Level Denver Center
09:22PM 38.7850 -105.4808 252° West 427 491 38,000  Level Denver Center
09:23PM 38.7458 -105.6272 251° West 429 494 38,000  Level Denver Center
09:24PM 38.7078 -105.7739 252° West 430 495 38,000  Level Denver Center
09:25PM 38.6686 -105.9197 251° West 429 494 38,000  Level Denver Center
09:26PM 38.6294 -106.0644 251° West 427 491 38,000  Level Denver Center
09:27PM 38.5931 -106.2017 251° West 428 493 38,000  Level Denver Center
09:28PM 38.5525 -106.3453 250° West 428 493 38,000  Level Denver Center
09:29PM 38.5053 -106.5167 251° West 426 490 38,000  Level Denver Center
09:30PM 38.4658 -106.6569 250° West 419 482 38,000  Level Denver Center
09:31PM 38.4272 -106.7986 251° West 420 483 38,000  Level Denver Center
09:32PM 38.3806 -106.9636 250° West 414 476 38,000  Level Denver Center
09:33PM 38.3417 -107.1042 251° West 418 481 38,000  Level Denver Center
09:34PM 38.3064 -107.2306 250° West 413 475 38,000  Level Denver Center
09:35PM 38.2625 -107.3856 250° West 416 479 38,000  Level Denver Center
09:36PM 38.2242 -107.5175 250° West 416 479 38,000  Level Denver Center
09:37PM 38.1783 -107.6750 250° West 422 486 38,000  Level Denver Center
09:39PM 38.1392 -107.8131 250° West 430 495 38,000  Level Denver Center
09:40PM 38.0997 -107.9492 250° West 429 494 38,000  Level Denver Center
09:41PM 38.0575 -108.0947 250° West 433 498 38,000  Level Denver Center
09:42PM 38.0100 -108.2553 249° West 434 499 38,000  Level Denver Center
09:43PM 37.9694 -108.3931 250° West 437 503 38,000  Level Denver Center
09:44PM 37.9225 -108.5519 250° West 434 499 38,000  Level Denver Center
09:45PM 37.8819 -108.6883 249° West 433 498 38,000  Level Denver Center
09:46PM 37.8264 -108.8744 249° West 440 506 38,000  Level Denver Center
09:47PM 37.7867 -109.0119 250° West 438 504 38,000  Level Denver Center
09:48PM 37.7494 -109.1750 254° West 434 499 38,000  Level Denver Center
09:49PM 37.7156 -109.3144 253° West 435 501 38,000  Level Denver Center
09:50PM 37.6808 -109.4514 252° West 431 496 38,000 -420 Level Denver Center
09:51PM 37.6406 -109.6092 252° West 423 487 37,200 -1,440 Descending Denver Center
09:52PM 37.6075 -109.7400 252° West 412 474 35,100 -1,620 Descending Denver Center
09:53PM 37.5686 -109.8944 252° West 415 478 34,000 -1,020 Descending Denver Center
09:54PM 37.5333 -110.0269 251° West 418 481 33,100 -960 Descending Denver Center
09:55PM 37.4983 -110.1625 252° West 424 488 32,100 -600 Descending Denver Center
09:56PM 37.4564 -110.3281 252° West 429 494 32,000 -60 Descending Denver Center
09:57PM 37.4192 -110.4703 252° West 427 491 32,000  Level Denver Center
09:58PM 37.3825 -110.6106 252° West 424 488 32,000  Level Denver Center
09:59PM 37.3442 -110.7517 251° West 426 490 32,000  Level Denver Center
10:00PM 37.3072 -110.8908 252° West 423 487 32,000  Level Denver Center
10:01PM 37.2736 -111.0300 253° West 418 481 32,000  Level Denver Center
10:02PM 37.2372 -111.1700 252° West 420 483 32,000  Level Denver Center
10:03PM 37.1983 -111.3100 251° West 425 489 32,000  Level Denver Center
10:04PM 37.1578 -111.4528 250° West 429 494 32,000  Level Denver Center
10:05PM 37.1222 -111.5908 252° West 422 486 32,000  Level Denver Center
10:06PM 37.0761 -111.7583 251° West 422 486 32,000  Level Denver Center
10:07PM 37.0389 -111.9003 252° West 426 490 32,000  Level Denver Center
10:08PM 37.0050 -112.0425 253° West 427 491 32,000  Level Denver Center
10:09PM 36.9700 -112.1850 253° West 424 488 32,000  Level Los Angeles Center
10:10PM 36.9358 -112.3250 253° West 421 484 32,000  Level Los Angeles Center
10:11PM 36.9019 -112.4664 253° West 423 487 32,000  Level Los Angeles Center
10:12PM 36.8672 -112.6064 253° West 422 486 32,000  Level Los Angeles Center
10:13PM 36.8336 -112.7489 254° West 425 489 32,000  Level Los Angeles Center
10:15PM 36.7978 -112.8903 252° West 426 490 32,000  Level Los Angeles Center
10:16PM 36.7622 -113.0325 253° West 428 493 32,000  Level Los Angeles Center
10:17PM 36.7206 -113.2053 253° West 432 497 32,000  Level Los Angeles Center
10:18PM 36.6842 -113.3481 252° West 433 498 32,000 -840 Level Los Angeles Center
10:19PM 36.6483 -113.4914 253° West 433 498 30,400 -2,460 Descending Los Angeles Center
10:20PM 36.6117 -113.6339 252° West 433 498 27,100 -2,940 Descending Los Angeles Center
10:21PM 36.5758 -113.7733 252° West 427 491 24,400 -2,700 Descending Los Angeles Center
10:22PM 36.5417 -113.9092 253° West 417 480 21,600 -2,820 Descending Los Angeles Center
10:23PM 36.5064 -114.0417 252° West 406 467 18,700 -3,000 Descending Los Angeles Center
10:23PM 36.4847 -114.1219 251° West 395 455 17,100 -2,640 Descending Los Angeles Center
10:24PM 36.4736 -114.1711 254° West 397 457 16,000 -2,460 Descending Los Angeles Center
10:25PM 36.4411 -114.2981 252° West 389 448 13,300 -1,860 Descending Los Angeles Center
10:26PM 36.4083 -114.4181 251° West 374 430 12,300 -660 Descending Los Angeles Center
10:27PM 36.3497 -114.4908 225° Southwest 324 373 12,000 -540 Descending Los Angeles Center
10:28PM 36.2569 -114.5072 188° South 280 322 11,200 -1,020 Descending Los Angeles Center
10:29PM 36.1806 -114.5125 183° South 264 304 9,900 -1,080 Descending Los Angeles Center
10:30PM 36.1364 -114.5675 225° Southwest 242 278 9,000 -960 Descending Los Angeles Center
10:31PM 36.1089 -114.6381 244° Southwest 228 262 8,000 -540 Descending Los Angeles Center
10:32PM 36.0842 -114.7022 245° Southwest 225 259 8,000  Level Los Angeles Center
10:32PM 36.0786 -114.7167 245° Southwest 222 255 8,000 -120 Level Los Angeles Center
10:33PM 36.0742 -114.7747 265° West 215 247 7,900 -420 Descending Los Angeles Center
10:33PM 36.0717 -114.7914 259° West 222 255 7,600 -1,320 Descending Los Angeles Center
10:34PM 36.0733 -114.8392 272° West 203 234 6,700 -1,320 Descending Los Angeles Center
10:34PM 36.0728 -114.8600 268° West 212 244 6,300 -1,200 Descending Los Angeles Center
10:35PM 36.0739 -114.9108 272° West 207 238 5,500 -1,140 Descending Los Angeles Center
10:35PM 36.0739 -114.9461 270° West 207 238 4,900 -1,020 Descending Los Angeles Center